Daihatsumaru — JD2764 — position and weather

sailwx.info

Track history (hours):
 
Tides and Currents Weather Stations Pressure Air Temp Water Temp Dewpoint Dewpoint Depression Visibility Wind Speed Wind Dir Waves Ship Positions

Daihatsumaru

Last reported at 2018-Feb-22 00:57 UTC. Time now 2018-Feb-22 01:24 UTC.
Position N 33°37' E 131°15'.

Length 106 m; draft 4.5 m.

Type: Cargo ship. MMSI: 431000701.

Date/timePositionNaut miles runAvg speedWind from/ knotsBaromVisibWave heightAir tempDewpointWater temp
2018-Feb-22 00:57N 33°37' E 131°15'0 0.0
2018-Feb-22 00:30N 33°37' E 131°15'0 0.0
2018-Feb-22 00:00N 33°37' E 131°15'0 0.0
2018-Feb-21 23:30N 33°37' E 131°15'0 0.0
2018-Feb-21 23:00N 33°37' E 131°15'0 0.0
2018-Feb-21 22:30N 33°37' E 131°15'0 0.0
2018-Feb-21 22:00N 33°37' E 131°15'5 9.7
2018-Feb-21 21:30N 33°41' E 131°19'5 9.1
2018-Feb-21 21:00N 33°43' E 131°23'714.7
2018-Feb-21 20:30N 33°45' E 131°31'815.2
2018-Feb-21 20:00N 33°46' E 131°40'815.0
2018-Feb-21 19:30N 33°45' E 131°49'915.7
2018-Feb-21 18:55N 33°46' E 132°00'716.0
2018-Feb-21 18:30N 33°48' E 132°08'815.8
2018-Feb-21 17:59N 33°50' E 132°17'915.8
2018-Feb-21 17:23N 33°52' E 132°29'615.4
2018-Feb-21 17:00N 33°54' E 132°35'714.9
2018-Feb-21 16:30N 33°58' E 132°43'83 9.2
2018-Feb-21 07:32N 34°25' E 134°17'115.0
2018-Feb-21 07:27N 34°25' E 134°19'715.5
2018-Feb-21 07:00N 34°27' E 134°26'815.7
2018-Feb-21 06:30N 34°30' E 134°35'815.9
2018-Feb-21 06:00N 34°33' E 134°44'816.3
2018-Feb-21 05:30N 34°36' E 134°54'714.4
2018-Feb-21 05:00N 34°37' E 135°02'815.6
2018-Feb-21 04:31N 34°37' E 135°12'815.3
2018-Feb-21 04:00N 34°40' E 135°21'3 5.6
2018-Feb-21 03:31N 34°41' E 135°23'0 0.1
2018-Feb-21 02:59N 34°41' E 135°23'0 0.1
2018-Feb-21 02:29N 34°41' E 135°23'0 0.0
2018-Feb-21 01:59N 34°41' E 135°23'0 0.0
2018-Feb-21 01:29N 34°41' E 135°23'0 0.1
2018-Feb-21 00:59N 34°41' E 135°23'0 0.1
2018-Feb-21 00:29N 34°41' E 135°23'0 0.1
2018-Feb-20 23:59N 34°41' E 135°23'0 0.1
2018-Feb-20 23:29N 34°41' E 135°23'2 4.0
2018-Feb-20 23:00N 34°40' E 135°21'1 1.1
2018-Feb-20 22:28N 34°40' E 135°21'0 0.0
2018-Feb-20 21:58N 34°40' E 135°21'0 0.0
2018-Feb-20 21:28N 34°40' E 135°21'0 0.0
2018-Feb-20 20:58N 34°40' E 135°21'0 0.0
2018-Feb-20 20:28N 34°40' E 135°21'0 0.0
2018-Feb-20 19:58N 34°40' E 135°21'0 0.1
2018-Feb-20 19:30N 34°40' E 135°21'612.6
2018-Feb-20 19:00N 34°36' E 135°15'714.7
2018-Feb-20 18:30N 34°35' E 135°06'815.5
2018-Feb-20 18:00N 34°36' E 134°57'815.3
2018-Feb-20 17:30N 34°33' E 134°49'714.8
2018-Feb-20 17:00N 34°30' E 134°41'714.9
2018-Feb-20 16:30N 34°27' E 134°32'714.9
2018-Feb-20 16:00N 34°24' E 134°24'714.7
2018-Feb-20 15:30N 34°24' E 134°15'7712.3
2018-Feb-20 09:16N 34°01' E 132°46'413.7
2018-Feb-20 09:00N 33°58' E 132°44'611.3
2018-Feb-20 08:26N 33°52' E 132°42'0 0.0
2018-Feb-20 07:18N 33°52' E 132°42'5 9.3
2018-Feb-20 06:48N 33°50' E 132°37'514.9
2018-Feb-20 06:29N 33°49' E 132°32'1315.0
2018-Feb-20 05:39N 33°44' E 132°18'315.5
2018-Feb-20 05:30N 33°43' E 132°15'1715.1
2018-Feb-20 04:23N 33°43' E 131°55'616.2
2018-Feb-20 04:00N 33°45' E 131°48'816.2
2018-Feb-20 03:30N 33°46' E 131°38'816.1
2018-Feb-20 03:00N 33°43' E 131°29'815.7
2018-Feb-20 02:30N 33°40' E 131°21'611.5
2018-Feb-20 02:00N 33°37' E 131°15'0 0.0
2018-Feb-20 01:30N 33°37' E 131°15'0 0.0
2018-Feb-20 01:00N 33°37' E 131°15'0 0.0
2018-Feb-20 00:30N 33°37' E 131°15'0 0.0
2018-Feb-20 00:00N 33°37' E 131°15'0 0.0
2018-Feb-19 23:30N 33°37' E 131°15'0 0.0
2018-Feb-19 22:57N 33°37' E 131°15'0 0.0
2018-Feb-19 22:27N 33°37' E 131°15'0 0.0
2018-Feb-19 22:00N 33°37' E 131°15'510.5
2018-Feb-19 21:30N 33°41' E 131°19'5 9.2
2018-Feb-19 21:00N 33°44' E 131°22'714.6
2018-Feb-19 20:30N 33°48' E 131°30'815.1
2018-Feb-19 19:59N 33°47' E 131°39'714.9
2018-Feb-19 19:30N 33°46' E 131°48'815.1
2018-Feb-19 19:00N 33°45' E 131°57'815.7
2018-Feb-19 18:29N 33°47' E 132°06'816.2
2018-Feb-19 18:00N 33°50' E 132°15'916.1
2018-Feb-19 17:26N 33°51' E 132°26'716.2
2018-Feb-19 17:00N 33°54' E 132°34'815.6
2018-Feb-19 16:30N 33°57' E 132°42'84 9.3
2018-Feb-19 07:31N 34°25' E 134°18'114.8
2018-Feb-19 07:25N 34°25' E 134°19'615.3
2018-Feb-19 07:01N 34°27' E 134°26'815.5
2018-Feb-19 06:30N 34°30' E 134°35'815.3
2018-Feb-19 06:00N 34°33' E 134°44'815.2
2018-Feb-19 05:31N 34°36' E 134°52'714.1
2018-Feb-19 05:00N 34°38' E 135°01'612.6
2018-Feb-19 04:31N 34°36' E 135°08'815.8
2018-Feb-19 04:01N 34°38' E 135°17'611.8
2018-Feb-19 03:31N 34°41' E 135°23'0 0.0
2018-Feb-19 02:59N 34°41' E 135°23'0 0.1
2018-Feb-19 02:29N 34°41' E 135°23'0 0.1
2018-Feb-19 01:59N 34°41' E 135°23'0 0.1
2018-Feb-19 01:29N 34°41' E 135°23'0 0.1
2018-Feb-19 00:59N 34°41' E 135°23'0 0.1
2018-Feb-19 00:29N 34°41' E 135°23'0 0.1
2018-Feb-18 23:59N 34°41' E 135°23'0 0.1
2018-Feb-18 23:29N 34°41' E 135°23'0 0.1
2018-Feb-18 22:59N 34°41' E 135°23'0 0.0
2018-Feb-18 22:29N 34°41' E 135°23'0 0.1
2018-Feb-18 21:59N 34°41' E 135°23'0 0.0
2018-Feb-18 21:29N 34°41' E 135°23'0 0.1
2018-Feb-18 20:59N 34°41' E 135°23'0 0.0
2018-Feb-18 20:29N 34°41' E 135°23'0 0.0
2018-Feb-18 19:59N 34°41' E 135°23'0 0.1
2018-Feb-18 19:29N 34°41' E 135°23'0 0.1
2018-Feb-18 18:59N 34°41' E 135°23'0 0.0
2018-Feb-18 18:29N 34°41' E 135°23'0 0.1
2018-Feb-18 17:59N 34°41' E 135°23'0 0.1
2018-Feb-18 17:29N 34°41' E 135°23'0 0.1
2018-Feb-18 16:59N 34°41' E 135°23'0 0.0
2018-Feb-18 16:29N 34°41' E 135°23'0 0.1
2018-Feb-18 15:59N 34°41' E 135°23'0 0.0
2018-Feb-18 15:29N 34°41' E 135°23'0 0.0
2018-Feb-18 14:59N 34°41' E 135°23'0 0.1
2018-Feb-18 14:29N 34°41' E 135°23'0 0.1
2018-Feb-18 13:59N 34°41' E 135°23'0 0.0
2018-Feb-18 13:29N 34°41' E 135°23'0 0.0
2018-Feb-18 12:59N 34°41' E 135°23'0 0.0
2018-Feb-18 12:29N 34°41' E 135°23'0 0.0
2018-Feb-18 11:59N 34°41' E 135°23'0 0.1
2018-Feb-18 11:29N 34°41' E 135°23'0 0.1
2018-Feb-18 10:59N 34°41' E 135°23'0 0.0
2018-Feb-18 10:29N 34°41' E 135°23'0 0.1
2018-Feb-18 09:59N 34°41' E 135°23'0 0.0
2018-Feb-18 09:29N 34°41' E 135°23'0 0.1
2018-Feb-18 08:59N 34°41' E 135°23'0 0.1
2018-Feb-18 08:29N 34°41' E 135°23'0 0.1
2018-Feb-18 07:59N 34°41' E 135°23'0 0.0
2018-Feb-18 07:29N 34°41' E 135°23'0 0.0
2018-Feb-18 06:59N 34°41' E 135°23'0 0.0
2018-Feb-18 06:29N 34°41' E 135°23'0 0.0
2018-Feb-18 05:59N 34°41' E 135°23'0 0.0
2018-Feb-18 05:29N 34°41' E 135°23'0 0.0
2018-Feb-18 04:59N 34°41' E 135°23'0 0.0
2018-Feb-18 04:29N 34°41' E 135°23'0 0.0
2018-Feb-18 03:59N 34°41' E 135°23'0 0.0
2018-Feb-18 03:29N 34°41' E 135°23'0 0.1
2018-Feb-18 02:56N 34°41' E 135°23'0 0.0
2018-Feb-18 02:29N 34°41' E 135°23'0 0.1
2018-Feb-18 01:59N 34°41' E 135°23'0 0.0
2018-Feb-18 01:29N 34°41' E 135°23'0 0.1
2018-Feb-18 00:59N 34°41' E 135°23'0 0.0
2018-Feb-18 00:29N 34°41' E 135°23'0 0.0
2018-Feb-17 23:59N 34°41' E 135°23'0 0.1
2018-Feb-17 23:30N 34°41' E 135°23'3 4.8
2018-Feb-17 22:59N 34°40' E 135°21'0 0.0
2018-Feb-17 22:29N 34°40' E 135°21'0 0.0
2018-Feb-17 21:59N 34°40' E 135°21'0 0.0
2018-Feb-17 21:29N 34°40' E 135°21'0 0.0
2018-Feb-17 20:59N 34°40' E 135°21'0 0.0
2018-Feb-17 20:29N 34°40' E 135°21'0 0.0
2018-Feb-17 19:59N 34°40' E 135°21'0 0.0
2018-Feb-17 19:29N 34°40' E 135°21'0 0.0
2018-Feb-17 18:59N 34°40' E 135°21'4 7.8
2018-Feb-17 18:31N 34°37' E 135°18'815.1
2018-Feb-17 18:00N 34°35' E 135°09'917.4
2018-Feb-17 17:31N 34°37' E 134°59'917.6
2018-Feb-17 17:01N 34°33' E 134°49'816.3
2018-Feb-17 16:30N 34°30' E 134°40'815.7
2018-Feb-17 16:00N 34°27' E 134°32'815.6
2018-Feb-17 15:30N 34°24' E 134°23'915.7
2018-Feb-17 14:57N 34°24' E 134°12'7512.9
2018-Feb-17 09:08N 34°01' E 132°46'214.9
2018-Feb-17 09:00N 33°59' E 132°45'8 5.3
2018-Feb-17 07:29N 33°51' E 132°42'713.3
2018-Feb-17 06:57N 33°49' E 132°34'714.5
2018-Feb-17 06:26N 33°46' E 132°26'714.9
2018-Feb-17 05:57N 33°43' E 132°18'2315.2
2018-Feb-17 04:27N 33°44' E 131°51'716.7
2018-Feb-17 04:00N 33°46' E 131°42'816.7
2018-Feb-17 03:31N 33°44' E 131°32'816.6
2018-Feb-17 03:01N 33°41' E 131°23'815.0
2018-Feb-17 02:30N 33°37' E 131°15'0 0.5
2018-Feb-17 01:58N 33°37' E 131°15'0 0.0
2018-Feb-17 01:28N 33°37' E 131°15'0 0.0
2018-Feb-17 00:55N 33°37' E 131°15'0 0.0
2018-Feb-17 00:28N 33°37' E 131°15'0 0.0
2018-Feb-16 23:55N 33°37' E 131°15'0 0.0
2018-Feb-16 23:28N 33°37' E 131°15'0 0.0
2018-Feb-16 22:58N 33°37' E 131°15'0 0.0
2018-Feb-16 22:28N 33°37' E 131°15'0 0.0
2018-Feb-16 22:00N 33°37' E 131°15'510.6
2018-Feb-16 21:30N 33°41' E 131°19'511.0
2018-Feb-16 21:00N 33°45' E 131°24'612.5
2018-Feb-16 20:30N 33°46' E 131°31'815.7
2018-Feb-16 20:00N 33°47' E 131°40'714.8
2018-Feb-16 19:30N 33°46' E 131°49'814.6
2018-Feb-16 18:56N 33°45' E 131°59'815.6
2018-Feb-16 18:27N 33°48' E 132°08'715.8
2018-Feb-16 18:00N 33°50' E 132°16'1216.1
2018-Feb-16 17:14N 33°53' E 132°31'416.5
2018-Feb-16 17:00N 33°54' E 132°35'816.3
2018-Feb-16 16:29N 33°59' E 132°43'81 9.0
2018-Feb-16 07:31N 34°25' E 134°16'315.1
2018-Feb-16 07:20N 34°25' E 134°19'515.2
2018-Feb-16 07:00N 34°27' E 134°25'815.5
2018-Feb-16 06:31N 34°29' E 134°34'815.1
2018-Feb-16 06:00N 34°32' E 134°43'714.9
2018-Feb-16 05:30N 34°35' E 134°51'713.6
2018-Feb-16 05:00N 34°38' E 134°58'713.0
2018-Feb-16 04:30N 34°36' E 135°06'815.6
2018-Feb-16 04:01N 34°37' E 135°15'714.7
2018-Feb-16 03:30N 34°41' E 135°23'0 0.8
2018-Feb-16 02:58N 34°41' E 135°23'0 0.0
2018-Feb-16 02:28N 34°41' E 135°23'0 0.1
2018-Feb-16 01:58N 34°41' E 135°23'0 0.0
2018-Feb-16 01:28N 34°41' E 135°23'0 0.1
2018-Feb-16 00:58N 34°41' E 135°23'0 0.1
2018-Feb-16 00:31N 34°41' E 135°23'0 0.1
2018-Feb-16 00:00N 34°41' E 135°23'0 0.0
2018-Feb-15 23:31N 34°41' E 135°23'0 0.0
2018-Feb-15 23:00N 34°41' E 135°23'2 4.7
2018-Feb-15 22:30N 34°40' E 135°21'0 0.3
2018-Feb-15 22:00N 34°40' E 135°21'0 0.0
2018-Feb-15 21:30N 34°40' E 135°21'0 0.0
2018-Feb-15 21:00N 34°40' E 135°21'0 0.0
2018-Feb-15 20:30N 34°40' E 135°21'0 0.0
2018-Feb-15 19:59N 34°40' E 135°21'0 0.0
2018-Feb-15 19:30N 34°40' E 135°21'0 0.0
2018-Feb-15 19:01N 34°40' E 135°21'510.0
2018-Feb-15 18:31N 34°36' E 135°17'714.9
2018-Feb-15 18:01N 34°35' E 135°08'917.1
2018-Feb-15 17:30N 34°36' E 134°58'917.8
2018-Feb-15 17:01N 34°33' E 134°48'815.6
2018-Feb-15 16:30N 34°29' E 134°39'815.0
2018-Feb-15 16:00N 34°27' E 134°31'915.1
2018-Feb-15 15:26N 34°24' E 134°21'815.7
2018-Feb-15 14:55N 34°25' E 134°11'7413.3
2018-Feb-15 09:21N 34°01' E 132°46'515.8
2018-Feb-15 09:00N 33°56' E 132°43'5 6.5
2018-Feb-15 08:18N 33°52' E 132°42'0 0.0
2018-Feb-15 07:49N 33°52' E 132°42'0 0.0
2018-Feb-15 07:27N 33°52' E 132°42'3 7.1
2018-Feb-15 07:00N 33°51' E 132°39'815.2
2018-Feb-15 06:29N 33°48' E 132°30'715.0
2018-Feb-15 05:59N 33°44' E 132°22'715.1
2018-Feb-15 05:30N 33°42' E 132°14'815.0
2018-Feb-15 04:58N 33°42' E 132°04'716.0
2018-Feb-15 04:30N 33°43' E 131°55'816.4
2018-Feb-15 04:00N 33°45' E 131°46'816.2
2018-Feb-15 03:30N 33°45' E 131°36'816.4
2018-Feb-15 03:01N 33°43' E 131°27'816.1
2018-Feb-15 02:30N 33°39' E 131°18'3 6.7
2018-Feb-15 02:00N 33°37' E 131°15'0 0.0
2018-Feb-15 01:30N 33°37' E 131°15'0 0.0
2018-Feb-15 00:59N 33°37' E 131°15'0 0.0
2018-Feb-15 00:30N 33°37' E 131°15'0 0.0
2018-Feb-15 00:00N 33°37' E 131°15'0 0.0
2018-Feb-14 23:30N 33°37' E 131°15'0 0.0
2018-Feb-14 22:59N 33°37' E 131°15'0 0.0
2018-Feb-14 22:30N 33°37' E 131°15'0 0.2
2018-Feb-14 22:01N 33°37' E 131°15'510.9
2018-Feb-14 21:30N 33°41' E 131°19'815.3
2018-Feb-14 21:00N 33°47' E 131°25'714.5
2018-Feb-14 20:30N 33°48' E 131°33'815.8
2018-Feb-14 20:00N 33°46' E 131°43'815.6
2018-Feb-14 19:30N 33°45' E 131°52'815.4
2018-Feb-14 18:59N 33°43' E 132°01'814.9
2018-Feb-14 18:28N 33°43' E 132°10'1115.4
2018-Feb-14 17:45N 33°46' E 132°23'515.9
2018-Feb-14 17:25N 33°48' E 132°29'715.9
2018-Feb-14 17:00N 33°53' E 132°35'816.3
2018-Feb-14 16:30N 33°58' E 132°43'80 9.4
2018-Feb-14 08:00N 34°24' E 134°14'815.7
2018-Feb-14 07:30N 34°26' E 134°23'815.5
2018-Feb-14 07:00N 34°29' E 134°32'815.1
2018-Feb-14 06:30N 34°32' E 134°40'714.9
2018-Feb-14 06:01N 34°34' E 134°49'713.8
2018-Feb-14 05:30N 34°37' E 134°57'611.2
2018-Feb-14 05:01N 34°36' E 135°03'714.6
2018-Feb-14 04:31N 34°37' E 135°12'815.2
2018-Feb-14 04:00N 34°40' E 135°21'3 5.1
2018-Feb-14 03:30N 34°41' E 135°23'0 0.0
2018-Feb-14 03:01N 34°41' E 135°23'0 0.0
2018-Feb-14 02:30N 34°41' E 135°23'0 0.1
2018-Feb-14 02:01N 34°41' E 135°23'0 0.0
2018-Feb-14 01:31N 34°41' E 135°23'0 0.1
2018-Feb-14 01:00N 34°41' E 135°23'0 0.1
2018-Feb-14 00:30N 34°41' E 135°23'0 0.1
2018-Feb-14 00:01N 34°41' E 135°23'0 0.0
2018-Feb-13 23:31N 34°41' E 135°23'0 0.0
2018-Feb-13 23:00N 34°41' E 135°23'0 0.1
2018-Feb-13 22:31N 34°41' E 135°23'0 0.2
2018-Feb-13 22:00N 34°41' E 135°23'3 6.0
2018-Feb-13 21:30N 34°39' E 135°21'0 0.1
2018-Feb-13 21:00N 34°39' E 135°21'0 0.0
2018-Feb-13 20:31N 34°39' E 135°21'0 0.1
2018-Feb-13 20:00N 34°39' E 135°21'0 0.0
2018-Feb-13 19:31N 34°39' E 135°21'0 0.0
2018-Feb-13 19:00N 34°39' E 135°21'0 0.2
2018-Feb-13 18:30N 34°39' E 135°21'612.9
2018-Feb-13 18:01N 34°35' E 135°14'816.0
2018-Feb-13 17:30N 34°35' E 135°05'816.2
2018-Feb-13 17:00N 34°35' E 134°55'917.3
2018-Feb-13 16:30N 34°32' E 134°45'816.0
2018-Feb-13 16:00N 34°29' E 134°36'815.7
2018-Feb-13 15:30N 34°26' E 134°27'815.7
2018-Feb-13 15:00N 34°24' E 134°18'7914.1
2018-Feb-13 09:23N 34°01' E 132°46'616.0
2018-Feb-13 09:00N 33°56' E 132°43'4 3.0
2018-Feb-13 07:30N 33°52' E 132°42'611.5
2018-Feb-13 07:00N 33°50' E 132°36'815.6
2018-Feb-13 06:28N 33°46' E 132°27'815.5
2018-Feb-13 05:58N 33°44' E 132°18'2015.3
2018-Feb-13 04:38N 33°43' E 131°53'216.2
2018-Feb-13 04:30N 33°44' E 131°51'816.3
2018-Feb-13 04:00N 33°45' E 131°41'816.6
2018-Feb-13 03:30N 33°44' E 131°31'816.5
2018-Feb-13 03:00N 33°41' E 131°22'714.5
2018-Feb-13 02:30N 33°37' E 131°15'0 0.5
2018-Feb-13 02:00N 33°37' E 131°15'0 0.0
2018-Feb-13 01:30N 33°37' E 131°15'0 0.0
2018-Feb-13 01:01N 33°37' E 131°15'0 0.0
2018-Feb-13 00:30N 33°37' E 131°15'0 0.0
2018-Feb-13 00:00N 33°37' E 131°15'0 0.0
2018-Feb-12 23:30N 33°37' E 131°15'0 0.0
2018-Feb-12 23:00N 33°37' E 131°15'0 0.0
2018-Feb-12 22:30N 33°37' E 131°15'1 1.5
2018-Feb-12 22:00N 33°37' E 131°15'713.9
2018-Feb-12 21:30N 33°41' E 131°22'714.9
2018-Feb-12 21:00N 33°44' E 131°30'815.7
2018-Feb-12 20:30N 33°47' E 131°39'714.6
2018-Feb-12 20:00N 33°46' E 131°48'714.2
2018-Feb-12 19:30N 33°46' E 131°57'814.3
2018-Feb-12 18:56N 33°47' E 132°06'714.7
2018-Feb-12 18:28N 33°50' E 132°14'714.7
2018-Feb-12 17:58N 33°50' E 132°23'715.1
2018-Feb-12 17:29N 33°53' E 132°31'715.5
2018-Feb-12 17:00N 33°56' E 132°39'87 9.4
2018-Feb-12 07:45N 34°25' E 134°18'415.2
2018-Feb-12 07:30N 34°26' E 134°23'715.0
2018-Feb-12 07:00N 34°29' E 134°31'815.1
2018-Feb-12 06:30N 34°32' E 134°39'714.5
2018-Feb-12 06:00N 34°34' E 134°48'713.9
2018-Feb-12 05:30N 34°37' E 134°56'612.1
2018-Feb-12 05:01N 34°36' E 135°03'713.5
2018-Feb-12 04:31N 34°36' E 135°11'714.0
2018-Feb-12 04:01N 34°39' E 135°19'4 8.8
2018-Feb-12 03:30N 34°41' E 135°23'0 0.1
2018-Feb-12 03:00N 34°41' E 135°23'0 0.0
2018-Feb-12 02:30N 34°41' E 135°23'0 0.0
2018-Feb-12 02:00N 34°41' E 135°23'0 0.0
2018-Feb-12 01:30N 34°41' E 135°23'0 0.0
2018-Feb-12 01:01N 34°41' E 135°23'  
Track history (hours):
 
Tides and Currents Weather Stations Pressure Air Temp Water Temp Dewpoint Dewpoint Depression Visibility Wind Speed Wind Dir Waves Ship Positions

Daihatsumaru

Last reported at 2018-Feb-22 00:57 UTC. Time now 2018-Feb-22 01:24 UTC.
Position N 33°37' E 131°15'.

Length 106 m; draft 4.5 m.

Type: Cargo ship. MMSI: 431000701.

Date/timePositionNaut miles runAvg speedWind from/ knotsBaromVisibWave heightAir tempDewpointWater temp
2018-Feb-22 00:57N 33°37' E 131°15'0 0.0
2018-Feb-22 00:30N 33°37' E 131°15'0 0.0
2018-Feb-22 00:00N 33°37' E 131°15'0 0.0
2018-Feb-21 23:30N 33°37' E 131°15'0 0.0
2018-Feb-21 23:00N 33°37' E 131°15'0 0.0
2018-Feb-21 22:30N 33°37' E 131°15'0 0.0
2018-Feb-21 22:00N 33°37' E 131°15'5 9.7
2018-Feb-21 21:30N 33°41' E 131°19'5 9.1
2018-Feb-21 21:00N 33°43' E 131°23'714.7
2018-Feb-21 20:30N 33°45' E 131°31'815.2
2018-Feb-21 20:00N 33°46' E 131°40'815.0
2018-Feb-21 19:30N 33°45' E 131°49'915.7
2018-Feb-21 18:55N 33°46' E 132°00'716.0
2018-Feb-21 18:30N 33°48' E 132°08'815.8
2018-Feb-21 17:59N 33°50' E 132°17'915.8
2018-Feb-21 17:23N 33°52' E 132°29'615.4
2018-Feb-21 17:00N 33°54' E 132°35'714.9
2018-Feb-21 16:30N 33°58' E 132°43'83 9.2
2018-Feb-21 07:32N 34°25' E 134°17'115.0
2018-Feb-21 07:27N 34°25' E 134°19'715.5
2018-Feb-21 07:00N 34°27' E 134°26'815.7
2018-Feb-21 06:30N 34°30' E 134°35'815.9
2018-Feb-21 06:00N 34°33' E 134°44'816.3
2018-Feb-21 05:30N 34°36' E 134°54'714.4
2018-Feb-21 05:00N 34°37' E 135°02'815.6
2018-Feb-21 04:31N 34°37' E 135°12'815.3
2018-Feb-21 04:00N 34°40' E 135°21'3 5.6
2018-Feb-21 03:31N 34°41' E 135°23'0 0.1
2018-Feb-21 02:59N 34°41' E 135°23'0 0.1
2018-Feb-21 02:29N 34°41' E 135°23'0 0.0
2018-Feb-21 01:59N 34°41' E 135°23'0 0.0
2018-Feb-21 01:29N 34°41' E 135°23'0 0.1
2018-Feb-21 00:59N 34°41' E 135°23'0 0.1
2018-Feb-21 00:29N 34°41' E 135°23'0 0.1
2018-Feb-20 23:59N 34°41' E 135°23'0 0.1
2018-Feb-20 23:29N 34°41' E 135°23'2 4.0
2018-Feb-20 23:00N 34°40' E 135°21'1 1.1
2018-Feb-20 22:28N 34°40' E 135°21'0 0.0
2018-Feb-20 21:58N 34°40' E 135°21'0 0.0
2018-Feb-20 21:28N 34°40' E 135°21'0 0.0
2018-Feb-20 20:58N 34°40' E 135°21'0 0.0
2018-Feb-20 20:28N 34°40' E 135°21'0 0.0
2018-Feb-20 19:58N 34°40' E 135°21'0 0.1
2018-Feb-20 19:30N 34°40' E 135°21'612.6
2018-Feb-20 19:00N 34°36' E 135°15'714.7
2018-Feb-20 18:30N 34°35' E 135°06'815.5
2018-Feb-20 18:00N 34°36' E 134°57'815.3
2018-Feb-20 17:30N 34°33' E 134°49'714.8
2018-Feb-20 17:00N 34°30' E 134°41'714.9
2018-Feb-20 16:30N 34°27' E 134°32'714.9
2018-Feb-20 16:00N 34°24' E 134°24'714.7
2018-Feb-20 15:30N 34°24' E 134°15'7712.3
2018-Feb-20 09:16N 34°01' E 132°46'413.7
2018-Feb-20 09:00N 33°58' E 132°44'611.3
2018-Feb-20 08:26N 33°52' E 132°42'0 0.0
2018-Feb-20 07:18N 33°52' E 132°42'5 9.3
2018-Feb-20 06:48N 33°50' E 132°37'514.9
2018-Feb-20 06:29N 33°49' E 132°32'1315.0
2018-Feb-20 05:39N 33°44' E 132°18'315.5
2018-Feb-20 05:30N 33°43' E 132°15'1715.1
2018-Feb-20 04:23N 33°43' E 131°55'616.2
2018-Feb-20 04:00N 33°45' E 131°48'816.2
2018-Feb-20 03:30N 33°46' E 131°38'816.1
2018-Feb-20 03:00N 33°43' E 131°29'815.7
2018-Feb-20 02:30N 33°40' E 131°21'611.5
2018-Feb-20 02:00N 33°37' E 131°15'0 0.0
2018-Feb-20 01:30N 33°37' E 131°15'0 0.0
2018-Feb-20 01:00N 33°37' E 131°15'0 0.0
2018-Feb-20 00:30N 33°37' E 131°15'0 0.0
2018-Feb-20 00:00N 33°37' E 131°15'0 0.0
2018-Feb-19 23:30N 33°37' E 131°15'0 0.0
2018-Feb-19 22:57N 33°37' E 131°15'0 0.0
2018-Feb-19 22:27N 33°37' E 131°15'0 0.0
2018-Feb-19 22:00N 33°37' E 131°15'510.5
2018-Feb-19 21:30N 33°41' E 131°19'5 9.2
2018-Feb-19 21:00N 33°44' E 131°22'714.6
2018-Feb-19 20:30N 33°48' E 131°30'815.1
2018-Feb-19 19:59N 33°47' E 131°39'714.9
2018-Feb-19 19:30N 33°46' E 131°48'815.1
2018-Feb-19 19:00N 33°45' E 131°57'815.7
2018-Feb-19 18:29N 33°47' E 132°06'816.2
2018-Feb-19 18:00N 33°50' E 132°15'916.1
2018-Feb-19 17:26N 33°51' E 132°26'716.2
2018-Feb-19 17:00N 33°54' E 132°34'815.6
2018-Feb-19 16:30N 33°57' E 132°42'84 9.3
2018-Feb-19 07:31N 34°25' E 134°18'114.8
2018-Feb-19 07:25N 34°25' E 134°19'615.3
2018-Feb-19 07:01N 34°27' E 134°26'815.5
2018-Feb-19 06:30N 34°30' E 134°35'815.3
2018-Feb-19 06:00N 34°33' E 134°44'815.2
2018-Feb-19 05:31N 34°36' E 134°52'714.1
2018-Feb-19 05:00N 34°38' E 135°01'612.6
2018-Feb-19 04:31N 34°36' E 135°08'815.8
2018-Feb-19 04:01N 34°38' E 135°17'611.8
2018-Feb-19 03:31N 34°41' E 135°23'0 0.0
2018-Feb-19 02:59N 34°41' E 135°23'0 0.1
2018-Feb-19 02:29N 34°41' E 135°23'0 0.1
2018-Feb-19 01:59N 34°41' E 135°23'0 0.1
2018-Feb-19 01:29N 34°41' E 135°23'0 0.1
2018-Feb-19 00:59N 34°41' E 135°23'0 0.1
2018-Feb-19 00:29N 34°41' E 135°23'0 0.1
2018-Feb-18 23:59N 34°41' E 135°23'0 0.1
2018-Feb-18 23:29N 34°41' E 135°23'0 0.1
2018-Feb-18 22:59N 34°41' E 135°23'0 0.0
2018-Feb-18 22:29N 34°41' E 135°23'0 0.1
2018-Feb-18 21:59N 34°41' E 135°23'0 0.0
2018-Feb-18 21:29N 34°41' E 135°23'0 0.1
2018-Feb-18 20:59N 34°41' E 135°23'0 0.0
2018-Feb-18 20:29N 34°41' E 135°23'0 0.0
2018-Feb-18 19:59N 34°41' E 135°23'0 0.1
2018-Feb-18 19:29N 34°41' E 135°23'0 0.1
2018-Feb-18 18:59N 34°41' E 135°23'0 0.0
2018-Feb-18 18:29N 34°41' E 135°23'0 0.1
2018-Feb-18 17:59N 34°41' E 135°23'0 0.1
2018-Feb-18 17:29N 34°41' E 135°23'0 0.1
2018-Feb-18 16:59N 34°41' E 135°23'0 0.0
2018-Feb-18 16:29N 34°41' E 135°23'0 0.1
2018-Feb-18 15:59N 34°41' E 135°23'0 0.0
2018-Feb-18 15:29N 34°41' E 135°23'0 0.0
2018-Feb-18 14:59N 34°41' E 135°23'0 0.1
2018-Feb-18 14:29N 34°41' E 135°23'0 0.1
2018-Feb-18 13:59N 34°41' E 135°23'0 0.0
2018-Feb-18 13:29N 34°41' E 135°23'0 0.0
2018-Feb-18 12:59N 34°41' E 135°23'0 0.0
2018-Feb-18 12:29N 34°41' E 135°23'0 0.0
2018-Feb-18 11:59N 34°41' E 135°23'0 0.1
2018-Feb-18 11:29N 34°41' E 135°23'0 0.1
2018-Feb-18 10:59N 34°41' E 135°23'0 0.0
2018-Feb-18 10:29N 34°41' E 135°23'0 0.1
2018-Feb-18 09:59N 34°41' E 135°23'0 0.0
2018-Feb-18 09:29N 34°41' E 135°23'0 0.1
2018-Feb-18 08:59N 34°41' E 135°23'0 0.1
2018-Feb-18 08:29N 34°41' E 135°23'0 0.1
2018-Feb-18 07:59N 34°41' E 135°23'0 0.0
2018-Feb-18 07:29N 34°41' E 135°23'0 0.0
2018-Feb-18 06:59N 34°41' E 135°23'0 0.0
2018-Feb-18 06:29N 34°41' E 135°23'0 0.0
2018-Feb-18 05:59N 34°41' E 135°23'0 0.0
2018-Feb-18 05:29N 34°41' E 135°23'0 0.0
2018-Feb-18 04:59N 34°41' E 135°23'0 0.0
2018-Feb-18 04:29N 34°41' E 135°23'0 0.0
2018-Feb-18 03:59N 34°41' E 135°23'0 0.0
2018-Feb-18 03:29N 34°41' E 135°23'0 0.1
2018-Feb-18 02:56N 34°41' E 135°23'0 0.0
2018-Feb-18 02:29N 34°41' E 135°23'0 0.1
2018-Feb-18 01:59N 34°41' E 135°23'0 0.0
2018-Feb-18 01:29N 34°41' E 135°23'0 0.1
2018-Feb-18 00:59N 34°41' E 135°23'0 0.0
2018-Feb-18 00:29N 34°41' E 135°23'0 0.0
2018-Feb-17 23:59N 34°41' E 135°23'0 0.1
2018-Feb-17 23:30N 34°41' E 135°23'3 4.8
2018-Feb-17 22:59N 34°40' E 135°21'0 0.0
2018-Feb-17 22:29N 34°40' E 135°21'0 0.0
2018-Feb-17 21:59N 34°40' E 135°21'0 0.0
2018-Feb-17 21:29N 34°40' E 135°21'0 0.0
2018-Feb-17 20:59N 34°40' E 135°21'0 0.0
2018-Feb-17 20:29N 34°40' E 135°21'0 0.0
2018-Feb-17 19:59N 34°40' E 135°21'0 0.0
2018-Feb-17 19:29N 34°40' E 135°21'0 0.0
2018-Feb-17 18:59N 34°40' E 135°21'4 7.8
2018-Feb-17 18:31N 34°37' E 135°18'815.1
2018-Feb-17 18:00N 34°35' E 135°09'917.4
2018-Feb-17 17:31N 34°37' E 134°59'917.6
2018-Feb-17 17:01N 34°33' E 134°49'816.3
2018-Feb-17 16:30N 34°30' E 134°40'815.7
2018-Feb-17 16:00N 34°27' E 134°32'815.6
2018-Feb-17 15:30N 34°24' E 134°23'915.7
2018-Feb-17 14:57N 34°24' E 134°12'7512.9
2018-Feb-17 09:08N 34°01' E 132°46'214.9
2018-Feb-17 09:00N 33°59' E 132°45'8 5.3
2018-Feb-17 07:29N 33°51' E 132°42'713.3
2018-Feb-17 06:57N 33°49' E 132°34'714.5
2018-Feb-17 06:26N 33°46' E 132°26'714.9
2018-Feb-17 05:57N 33°43' E 132°18'2315.2
2018-Feb-17 04:27N 33°44' E 131°51'716.7
2018-Feb-17 04:00N 33°46' E 131°42'816.7
2018-Feb-17 03:31N 33°44' E 131°32'816.6
2018-Feb-17 03:01N 33°41' E 131°23'815.0
2018-Feb-17 02:30N 33°37' E 131°15'0 0.5
2018-Feb-17 01:58N 33°37' E 131°15'0 0.0
2018-Feb-17 01:28N 33°37' E 131°15'0 0.0
2018-Feb-17 00:55N 33°37' E 131°15'0 0.0
2018-Feb-17 00:28N 33°37' E 131°15'0 0.0
2018-Feb-16 23:55N 33°37' E 131°15'0 0.0
2018-Feb-16 23:28N 33°37' E 131°15'0 0.0
2018-Feb-16 22:58N 33°37' E 131°15'0 0.0
2018-Feb-16 22:28N 33°37' E 131°15'0 0.0
2018-Feb-16 22:00N 33°37' E 131°15'510.6
2018-Feb-16 21:30N 33°41' E 131°19'511.0
2018-Feb-16 21:00N 33°45' E 131°24'612.5
2018-Feb-16 20:30N 33°46' E 131°31'815.7
2018-Feb-16 20:00N 33°47' E 131°40'714.8
2018-Feb-16 19:30N 33°46' E 131°49'814.6
2018-Feb-16 18:56N 33°45' E 131°59'815.6
2018-Feb-16 18:27N 33°48' E 132°08'715.8
2018-Feb-16 18:00N 33°50' E 132°16'1216.1
2018-Feb-16 17:14N 33°53' E 132°31'416.5
2018-Feb-16 17:00N 33°54' E 132°35'816.3
2018-Feb-16 16:29N 33°59' E 132°43'81 9.0
2018-Feb-16 07:31N 34°25' E 134°16'315.1
2018-Feb-16 07:20N 34°25' E 134°19'515.2
2018-Feb-16 07:00N 34°27' E 134°25'815.5
2018-Feb-16 06:31N 34°29' E 134°34'815.1
2018-Feb-16 06:00N 34°32' E 134°43'714.9
2018-Feb-16 05:30N 34°35' E 134°51'713.6
2018-Feb-16 05:00N 34°38' E 134°58'713.0
2018-Feb-16 04:30N 34°36' E 135°06'815.6
2018-Feb-16 04:01N 34°37' E 135°15'714.7
2018-Feb-16 03:30N 34°41' E 135°23'0 0.8
2018-Feb-16 02:58N 34°41' E 135°23'0 0.0
2018-Feb-16 02:28N 34°41' E 135°23'0 0.1
2018-Feb-16 01:58N 34°41' E 135°23'0 0.0
2018-Feb-16 01:28N 34°41' E 135°23'0 0.1
2018-Feb-16 00:58N 34°41' E 135°23'0 0.1
2018-Feb-16 00:31N 34°41' E 135°23'0 0.1
2018-Feb-16 00:00N 34°41' E 135°23'0 0.0
2018-Feb-15 23:31N 34°41' E 135°23'0 0.0
2018-Feb-15 23:00N 34°41' E 135°23'2 4.7
2018-Feb-15 22:30N 34°40' E 135°21'0 0.3
2018-Feb-15 22:00N 34°40' E 135°21'0 0.0
2018-Feb-15 21:30N 34°40' E 135°21'0 0.0
2018-Feb-15 21:00N 34°40' E 135°21'0 0.0
2018-Feb-15 20:30N 34°40' E 135°21'0 0.0
2018-Feb-15 19:59N 34°40' E 135°21'0 0.0
2018-Feb-15 19:30N 34°40' E 135°21'0 0.0
2018-Feb-15 19:01N 34°40' E 135°21'510.0
2018-Feb-15 18:31N 34°36' E 135°17'714.9
2018-Feb-15 18:01N 34°35' E 135°08'917.1
2018-Feb-15 17:30N 34°36' E 134°58'917.8
2018-Feb-15 17:01N 34°33' E 134°48'815.6
2018-Feb-15 16:30N 34°29' E 134°39'815.0
2018-Feb-15 16:00N 34°27' E 134°31'915.1
2018-Feb-15 15:26N 34°24' E 134°21'815.7
2018-Feb-15 14:55N 34°25' E 134°11'7413.3
2018-Feb-15 09:21N 34°01' E 132°46'515.8
2018-Feb-15 09:00N 33°56' E 132°43'5 6.5
2018-Feb-15 08:18N 33°52' E 132°42'0 0.0
2018-Feb-15 07:49N 33°52' E 132°42'0 0.0
2018-Feb-15 07:27N 33°52' E 132°42'3 7.1
2018-Feb-15 07:00N 33°51' E 132°39'815.2
2018-Feb-15 06:29N 33°48' E 132°30'715.0
2018-Feb-15 05:59N 33°44' E 132°22'715.1
2018-Feb-15 05:30N 33°42' E 132°14'815.0
2018-Feb-15 04:58N 33°42' E 132°04'716.0
2018-Feb-15 04:30N 33°43' E 131°55'816.4
2018-Feb-15 04:00N 33°45' E 131°46'816.2
2018-Feb-15 03:30N 33°45' E 131°36'816.4
2018-Feb-15 03:01N 33°43' E 131°27'816.1
2018-Feb-15 02:30N 33°39' E 131°18'3 6.7
2018-Feb-15 02:00N 33°37' E 131°15'0 0.0
2018-Feb-15 01:30N 33°37' E 131°15'0 0.0
2018-Feb-15 00:59N 33°37' E 131°15'0 0.0
2018-Feb-15 00:30N 33°37' E 131°15'0 0.0
2018-Feb-15 00:00N 33°37' E 131°15'0 0.0
2018-Feb-14 23:30N 33°37' E 131°15'0 0.0
2018-Feb-14 22:59N 33°37' E 131°15'0 0.0
2018-Feb-14 22:30N 33°37' E 131°15'0 0.2
2018-Feb-14 22:01N 33°37' E 131°15'510.9
2018-Feb-14 21:30N 33°41' E 131°19'815.3
2018-Feb-14 21:00N 33°47' E 131°25'714.5
2018-Feb-14 20:30N 33°48' E 131°33'815.8
2018-Feb-14 20:00N 33°46' E 131°43'815.6
2018-Feb-14 19:30N 33°45' E 131°52'815.4
2018-Feb-14 18:59N 33°43' E 132°01'814.9
2018-Feb-14 18:28N 33°43' E 132°10'1115.4
2018-Feb-14 17:45N 33°46' E 132°23'515.9
2018-Feb-14 17:25N 33°48' E 132°29'715.9
2018-Feb-14 17:00N 33°53' E 132°35'816.3
2018-Feb-14 16:30N 33°58' E 132°43'80 9.4
2018-Feb-14 08:00N 34°24' E 134°14'815.7
2018-Feb-14 07:30N 34°26' E 134°23'815.5
2018-Feb-14 07:00N 34°29' E 134°32'815.1
2018-Feb-14 06:30N 34°32' E 134°40'714.9
2018-Feb-14 06:01N 34°34' E 134°49'713.8
2018-Feb-14 05:30N 34°37' E 134°57'611.2
2018-Feb-14 05:01N 34°36' E 135°03'714.6
2018-Feb-14 04:31N 34°37' E 135°12'815.2
2018-Feb-14 04:00N 34°40' E 135°21'3 5.1
2018-Feb-14 03:30N 34°41' E 135°23'0 0.0
2018-Feb-14 03:01N 34°41' E 135°23'0 0.0
2018-Feb-14 02:30N 34°41' E 135°23'0 0.1
2018-Feb-14 02:01N 34°41' E 135°23'0 0.0
2018-Feb-14 01:31N 34°41' E 135°23'0 0.1
2018-Feb-14 01:00N 34°41' E 135°23'0 0.1
2018-Feb-14 00:30N 34°41' E 135°23'0 0.1
2018-Feb-14 00:01N 34°41' E 135°23'0 0.0
2018-Feb-13 23:31N 34°41' E 135°23'0 0.0
2018-Feb-13 23:00N 34°41' E 135°23'0 0.1
2018-Feb-13 22:31N 34°41' E 135°23'0 0.2
2018-Feb-13 22:00N 34°41' E 135°23'3 6.0
2018-Feb-13 21:30N 34°39' E 135°21'0 0.1
2018-Feb-13 21:00N 34°39' E 135°21'0 0.0
2018-Feb-13 20:31N 34°39' E 135°21'0 0.1
2018-Feb-13 20:00N 34°39' E 135°21'0 0.0
2018-Feb-13 19:31N 34°39' E 135°21'0 0.0
2018-Feb-13 19:00N 34°39' E 135°21'0 0.2
2018-Feb-13 18:30N 34°39' E 135°21'612.9
2018-Feb-13 18:01N 34°35' E 135°14'816.0
2018-Feb-13 17:30N 34°35' E 135°05'816.2
2018-Feb-13 17:00N 34°35' E 134°55'917.3
2018-Feb-13 16:30N 34°32' E 134°45'816.0
2018-Feb-13 16:00N 34°29' E 134°36'815.7
2018-Feb-13 15:30N 34°26' E 134°27'815.7
2018-Feb-13 15:00N 34°24' E 134°18'7914.1
2018-Feb-13 09:23N 34°01' E 132°46'616.0
2018-Feb-13 09:00N 33°56' E 132°43'4 3.0
2018-Feb-13 07:30N 33°52' E 132°42'611.5
2018-Feb-13 07:00N 33°50' E 132°36'815.6
2018-Feb-13 06:28N 33°46' E 132°27'815.5
2018-Feb-13 05:58N 33°44' E 132°18'2015.3
2018-Feb-13 04:38N 33°43' E 131°53'216.2
2018-Feb-13 04:30N 33°44' E 131°51'816.3
2018-Feb-13 04:00N 33°45' E 131°41'816.6
2018-Feb-13 03:30N 33°44' E 131°31'816.5
2018-Feb-13 03:00N 33°41' E 131°22'714.5
2018-Feb-13 02:30N 33°37' E 131°15'0 0.5
2018-Feb-13 02:00N 33°37' E 131°15'0 0.0
2018-Feb-13 01:30N 33°37' E 131°15'0 0.0
2018-Feb-13 01:01N 33°37' E 131°15'0 0.0
2018-Feb-13 00:30N 33°37' E 131°15'0 0.0
2018-Feb-13 00:00N 33°37' E 131°15'0 0.0
2018-Feb-12 23:30N 33°37' E 131°15'0 0.0
2018-Feb-12 23:00N 33°37' E 131°15'0 0.0
2018-Feb-12 22:30N 33°37' E 131°15'1 1.5
2018-Feb-12 22:00N 33°37' E 131°15'713.9
2018-Feb-12 21:30N 33°41' E 131°22'714.9
2018-Feb-12 21:00N 33°44' E 131°30'815.7
2018-Feb-12 20:30N 33°47' E 131°39'714.6
2018-Feb-12 20:00N 33°46' E 131°48'714.2
2018-Feb-12 19:30N 33°46' E 131°57'814.3
2018-Feb-12 18:56N 33°47' E 132°06'714.7
2018-Feb-12 18:28N 33°50' E 132°14'714.7
2018-Feb-12 17:58N 33°50' E 132°23'715.1
2018-Feb-12 17:29N 33°53' E 132°31'715.5
2018-Feb-12 17:00N 33°56' E 132°39'87 9.4
2018-Feb-12 07:45N 34°25' E 134°18'415.2
2018-Feb-12 07:30N 34°26' E 134°23'715.0
2018-Feb-12 07:00N 34°29' E 134°31'815.1
2018-Feb-12 06:30N 34°32' E 134°39'714.5
2018-Feb-12 06:00N 34°34' E 134°48'713.9
2018-Feb-12 05:30N 34°37' E 134°56'612.1
2018-Feb-12 05:01N 34°36' E 135°03'713.5
2018-Feb-12 04:31N 34°36' E 135°11'714.0
2018-Feb-12 04:01N 34°39' E 135°19'4 8.8
2018-Feb-12 03:30N 34°41' E 135°23'0 0.1
2018-Feb-12 03:00N 34°41' E 135°23'0 0.0
2018-Feb-12 02:30N 34°41' E 135°23'0 0.0
2018-Feb-12 02:00N 34°41' E 135°23'0 0.0
2018-Feb-12 01:30N 34°41' E 135°23'0 0.0
2018-Feb-12 01:01N 34°41' E 135°23'  

Dump ship's entire track history